Time;durP1;ratioP1;P1;durP2;ratioP2;P2;SDS_P1;SDS_P2;PMS_P1;PMS_P2;Temp;Humidity;BMP_temperature;BMP_pressure;BME280_temperature;BME280_humidity;BME280_pressure;Samples;Min_cycle;Max_cycle;Signal;HPM_P1;HPM_P2
2023/03/05 00:00:13;;;;;;;5.63;0.90;;;4.00;99.90;;;;;;5019721;28;20073;-71
2023/03/05 00:02:39;;;;;;;3.13;1.02;;;4.00;99.90;;;;;;5015792;28;20187;-70
2023/03/05 00:05:05;;;;;;;4.13;1.25;;;4.00;99.90;;;;;;5021172;28;20474;-70
2023/03/05 00:07:31;;;;;;;4.90;1.50;;;4.00;99.90;;;;;;5018383;28;20052;-70
2023/03/05 00:10:03;;;;;;;7.32;1.98;;;4.00;99.90;;;;;;5016927;28;20083;-70
2023/03/05 00:12:29;;;;;;;2.22;0.80;;;4.00;99.90;;;;;;5021865;28;20050;-71
2023/03/05 00:14:55;;;;;;;6.43;1.40;;;4.00;99.90;;;;;;5016723;28;20114;-70
2023/03/05 00:17:21;;;;;;;8.43;0.80;;;4.00;99.90;;;;;;5018077;28;20235;-72
2023/03/05 00:19:46;;;;;;;1.97;0.43;;;4.00;99.90;;;;;;5019081;28;20539;-70
2023/03/05 00:22:12;;;;;;;3.73;0.80;;;4.00;99.90;;;;;;5031601;28;20074;-70
2023/03/05 00:24:38;;;;;;;8.40;1.30;;;4.00;99.90;;;;;;5022278;28;20049;-70
2023/03/05 00:27:03;;;;;;;6.73;1.20;;;4.00;99.90;;;;;;5023168;28;20044;-69
2023/03/05 00:29:29;;;;;;;2.75;0.88;;;4.00;99.90;;;;;;5020571;28;20515;-70
2023/03/05 00:31:55;;;;;;;5.37;0.70;;;4.10;99.90;;;;;;5041136;28;20412;-70
2023/03/05 00:34:21;;;;;;;4.07;0.90;;;4.00;99.90;;;;;;5023236;28;20048;-71
2023/03/05 00:36:49;;;;;;;4.68;1.27;;;4.00;99.90;;;;;;5020484;28;20474;-70
2023/03/05 00:39:16;;;;;;;2.35;0.70;;;4.00;99.90;;;;;;5048608;28;20077;-70
2023/03/05 00:41:42;;;;;;;9.48;0.88;;;4.00;99.90;;;;;;5037423;28;20046;-70
2023/03/05 00:44:08;;;;;;;2.22;0.63;;;4.10;99.90;;;;;;5020602;28;20041;-70
2023/03/05 00:46:34;;;;;;;6.20;0.70;;;4.00;99.90;;;;;;5050871;28;20554;-70
2023/03/05 00:49:00;;;;;;;3.75;0.47;;;4.00;99.90;;;;;;5019958;28;20042;-69
2023/03/05 00:51:26;;;;;;;2.70;0.33;;;4.00;99.90;;;;;;5023949;28;20619;-70
2023/03/05 00:53:52;;;;;;;5.00;0.87;;;4.00;99.90;;;;;;5031405;28;20116;-70
2023/03/05 00:56:18;;;;;;;4.07;0.73;;;3.90;99.90;;;;;;5028317;28;20052;-70
2023/03/05 00:58:43;;;;;;;3.17;0.87;;;4.00;99.90;;;;;;5020917;28;20049;-70
2023/03/05 01:01:09;;;;;;;2.23;0.50;;;3.90;99.90;;;;;;5025481;28;20046;-70
2023/03/05 01:03:36;;;;;;;1.93;0.70;;;3.90;99.90;;;;;;5024917;28;20171;-70
2023/03/05 01:06:09;;;;;;;;;;;3.90;99.90;;;;;;5024602;28;20049;-70
2023/03/05 01:08:36;;;;;;;4.07;0.63;;;3.80;99.90;;;;;;5016715;28;19920;-70
2023/03/05 01:11:03;;;;;;;3.53;0.50;;;3.80;99.90;;;;;;5054818;28;20049;-70
2023/03/05 01:13:28;;;;;;;8.10;0.60;;;3.80;99.90;;;;;;5024073;28;20120;-70
2023/03/05 01:15:54;;;;;;;3.27;0.77;;;3.80;99.90;;;;;;5025395;28;20804;-70
2023/03/05 01:18:20;;;;;;;5.50;0.50;;;3.80;99.90;;;;;;5020058;28;20416;-70
2023/03/05 01:20:46;;;;;;;4.80;0.43;;;3.80;99.90;;;;;;5007997;28;20046;-70
2023/03/05 01:23:12;;;;;;;2.90;0.73;;;3.70;99.90;;;;;;5053749;28;20046;-69
2023/03/05 01:25:38;;;;;;;1.23;0.40;;;3.70;99.90;;;;;;5024006;28;20524;-70
2023/03/05 01:28:04;;;;;;;5.00;0.63;;;3.70;99.90;;;;;;5021134;28;20655;-70
2023/03/05 01:30:30;;;;;;;5.40;0.30;;;3.80;99.90;;;;;;5014777;28;20053;-70
2023/03/05 01:32:55;;;;;;;2.37;0.40;;;3.70;99.90;;;;;;5014925;28;20563;-70
2023/03/05 01:35:24;;;;;;;1.83;0.40;;;3.70;99.90;;;;;;5023012;28;20042;-70
2023/03/05 01:37:49;;;;;;;5.43;0.65;;;3.70;99.90;;;;;;5021317;28;20551;-70
2023/03/05 01:40:23;;;;;;;2.27;0.40;;;3.70;99.90;;;;;;5051393;28;20037;-70
2023/03/05 01:43:12;;;;;;;1.73;0.47;;;3.60;99.90;;;;;;5024193;28;20044;-70
2023/03/05 01:45:58;;;;;;;4.13;0.40;;;3.60;99.90;;;;;;5017378;28;20132;-71
2023/03/05 01:48:25;;;;;;;3.47;0.50;;;3.60;99.90;;;;;;5020291;28;20451;-70
2023/03/05 01:50:50;;;;;;;1.65;0.40;;;3.50;99.90;;;;;;5019604;28;20043;-70
2023/03/05 01:53:16;;;;;;;2.50;0.87;;;3.50;99.90;;;;;;5021930;28;20045;-70
2023/03/05 01:55:42;;;;;;;3.72;0.77;;;3.50;99.90;;;;;;5024253;28;20077;-70
2023/03/05 01:58:12;;;;;;;4.00;0.40;;;3.50;99.90;;;;;;5019548;28;20236;-70
2023/03/05 02:00:44;;;;;;;5.05;0.52;;;3.50;99.90;;;;;;5019867;28;20048;-70
2023/03/05 02:03:12;;;;;;;0.47;0.25;;;3.50;99.90;;;;;;5019919;28;20037;-70
2023/03/05 02:05:40;;;;;;;0.63;0.40;;;3.50;99.90;;;;;;5057600;28;20104;-70
2023/03/05 02:08:11;;;;;;;1.63;0.60;;;3.60;99.90;;;;;;5023010;28;20041;-70
2023/03/05 02:10:37;;;;;;;1.33;0.40;;;3.60;99.90;;;;;;5005631;28;20041;-70
2023/03/05 02:13:10;;;;;;;1.48;0.40;;;3.60;99.90;;;;;;5023762;28;20047;-70
2023/03/05 02:15:37;;;;;;;5.65;0.60;;;3.60;99.90;;;;;;5008166;28;20055;-70
2023/03/05 02:18:04;;;;;;;1.90;0.60;;;3.60;99.90;;;;;;5020416;28;20052;-70
2023/03/05 02:20:42;;;;;;;6.38;0.55;;;3.60;99.90;;;;;;5023897;28;20099;-70
2023/03/05 02:23:08;;;;;;;2.67;0.98;;;3.60;99.90;;;;;;5039294;28;20049;-70
2023/03/05 02:25:33;;;;;;;1.13;0.33;;;3.60;99.90;;;;;;5023732;28;20041;-70
2023/03/05 02:28:08;;;;;;;4.57;0.40;;;3.60;99.90;;;;;;5018036;28;20049;-70
2023/03/05 02:30:34;;;;;;;5.53;1.00;;;3.70;99.90;;;;;;5046216;28;20084;-70
2023/03/05 02:33:00;;;;;;;2.33;0.70;;;3.60;99.90;;;;;;5023373;28;20517;-70
2023/03/05 02:35:26;;;;;;;3.97;0.57;;;3.60;99.90;;;;;;5016846;28;20053;-70
2023/03/05 02:37:52;;;;;;;6.03;0.70;;;3.60;99.90;;;;;;5025520;28;20095;-70
2023/03/05 02:40:17;;;;;;;3.03;0.60;;;3.60;99.90;;;;;;5021701;28;20044;-70
2023/03/05 02:42:43;;;;;;;1.73;0.60;;;3.60;99.90;;;;;;5030351;28;20485;-70
2023/03/05 02:45:10;;;;;;;3.67;0.50;;;3.60;99.90;;;;;;5028400;28;20052;-70
2023/03/05 02:47:36;;;;;;;4.95;0.63;;;3.60;99.90;;;;;;5025272;28;20596;-70
2023/03/05 02:50:04;;;;;;;2.70;0.70;;;3.60;99.90;;;;;;5035184;28;20049;-71
2023/03/05 02:52:31;;;;;;;3.65;0.50;;;3.60;99.90;;;;;;5025597;28;20060;-70
2023/03/05 02:54:56;;;;;;;3.13;0.45;;;3.60;99.90;;;;;;5022639;28;20041;-70
2023/03/05 02:57:22;;;;;;;7.43;0.40;;;3.60;99.90;;;;;;5019362;28;20037;-70
2023/03/05 02:59:47;;;;;;;1.13;0.50;;;3.60;99.90;;;;;;5018079;28;20038;-71
2023/03/05 03:02:13;;;;;;;2.47;0.50;;;3.60;99.90;;;;;;5020838;28;20401;-70
2023/03/05 03:04:39;;;;;;;3.30;0.50;;;3.60;99.90;;;;;;5021325;28;20132;-70
2023/03/05 03:07:05;;;;;;;1.27;0.40;;;3.60;99.90;;;;;;5052866;28;20064;-70
2023/03/05 03:09:34;;;;;;;2.43;0.43;;;3.60;99.90;;;;;;5017688;28;20137;-71
2023/03/05 03:12:00;;;;;;;2.97;0.50;;;3.60;99.90;;;;;;5054571;28;20052;-70
2023/03/05 03:14:26;;;;;;;1.02;0.30;;;3.60;99.90;;;;;;5020677;28;20065;-71
2023/03/05 03:16:52;;;;;;;1.60;0.30;;;3.50;99.90;;;;;;5021500;28;20160;-70
2023/03/05 03:19:17;;;;;;;1.47;0.47;;;3.50;99.90;;;;;;5013932;28;20641;-70
2023/03/05 03:21:43;;;;;;;1.20;0.40;;;3.50;99.90;;;;;;5022289;28;20145;-70
2023/03/05 03:24:08;;;;;;;2.77;0.30;;;3.50;99.90;;;;;;5016977;28;20090;-71
2023/03/05 03:26:34;;;;;;;3.30;0.70;;;3.50;99.90;;;;;;5019104;28;20107;-70
2023/03/05 03:29:00;;;;;;;0.93;0.43;;;3.40;99.90;;;;;;5022654;28;20045;-70
2023/03/05 03:31:25;;;;;;;1.03;0.40;;;3.40;99.90;;;;;;5014721;28;20509;-70
2023/03/05 03:33:51;;;;;;;1.73;0.30;;;3.30;99.90;;;;;;5010016;28;20052;-69
2023/03/05 03:36:17;;;;;;;5.90;1.03;;;3.40;99.90;;;;;;5016558;28;20814;-69
2023/03/05 03:38:42;;;;;;;3.67;0.90;;;3.40;99.90;;;;;;5018663;28;20049;-69
2023/03/05 03:41:08;;;;;;;3.30;0.93;;;3.40;99.90;;;;;;5017875;28;20069;-70
2023/03/05 03:43:35;;;;;;;2.72;0.80;;;3.40;99.90;;;;;;5021501;28;20088;-70
2023/03/05 03:46:04;;;;;;;2.20;0.90;;;3.40;99.90;;;;;;5022564;28;20111;-70
2023/03/05 03:48:29;;;;;;;1.88;0.50;;;3.40;99.90;;;;;;5016489;28;20060;-71
2023/03/05 03:50:55;;;;;;;2.07;0.47;;;3.40;99.90;;;;;;5017632;28;20107;-71
2023/03/05 03:53:20;;;;;;;0.90;0.50;;;3.50;99.90;;;;;;5020705;28;20080;-70
2023/03/05 03:55:46;;;;;;;3.40;0.53;;;3.40;99.90;;;;;;5020881;28;20060;-70
2023/03/05 03:58:12;;;;;;;0.67;0.30;;;3.40;99.90;;;;;;5001494;28;20034;-70
2023/03/05 04:00:38;;;;;;;6.57;0.53;;;3.40;99.90;;;;;;5019113;28;20041;-71
2023/03/05 04:03:04;;;;;;;;;;;3.40;99.90;;;;;;5031478;28;20076;-71
2023/03/05 04:05:29;;;;;;;2.60;0.30;;;3.40;99.90;;;;;;5031709;28;19983;-70
2023/03/05 04:07:57;;;;;;;0.53;0.30;;;3.50;99.90;;;;;;5017087;28;20416;-70
2023/03/05 04:10:23;;;;;;;1.27;0.30;;;3.50;99.90;;;;;;5017104;28;20033;-71
2023/03/05 04:12:49;;;;;;;1.10;0.40;;;3.50;99.90;;;;;;5015671;28;20049;-70
2023/03/05 04:15:14;;;;;;;0.70;0.20;;;3.40;99.90;;;;;;5017940;28;20517;-71
2023/03/05 04:17:40;;;;;;;0.77;0.20;;;3.50;99.90;;;;;;5018603;28;20037;-71
2023/03/05 04:20:09;;;;;;;1.00;0.37;;;3.50;99.90;;;;;;5097297;23;20056;-70
2023/03/05 04:22:36;;;;;;;11.10;1.90;;;3.50;99.90;;;;;;5029546;28;20411;-69
2023/03/05 04:25:05;;;;;;;2.08;0.30;;;3.50;99.90;;;;;;5027475;28;20041;-69
2023/03/05 04:27:33;;;;;;;2.13;0.30;;;3.50;99.90;;;;;;5029597;28;20104;-69
2023/03/05 04:29:59;;;;;;;3.72;0.57;;;3.50;99.90;;;;;;5013591;28;20479;-70
2023/03/05 04:32:24;;;;;;;1.52;0.40;;;3.40;99.90;;;;;;5027989;28;20084;-69
2023/03/05 04:34:50;;;;;;;2.43;0.40;;;3.50;99.90;;;;;;5040495;28;20069;-69
2023/03/05 04:37:16;;;;;;;4.87;0.67;;;3.50;99.90;;;;;;5036648;28;20037;-69
2023/03/05 04:39:42;;;;;;;4.23;0.60;;;3.40;99.90;;;;;;5007823;28;20124;-69
2023/03/05 04:42:09;;;;;;;3.25;0.60;;;3.40;99.90;;;;;;5006651;28;20082;-69
2023/03/05 04:44:35;;;;;;;1.52;0.73;;;3.40;99.90;;;;;;5031846;28;20099;-69
2023/03/05 04:47:01;;;;;;;3.03;0.60;;;3.40;99.90;;;;;;5025055;28;20063;-69
2023/03/05 04:49:26;;;;;;;2.40;0.27;;;3.40;99.90;;;;;;5016041;28;20719;-68
2023/03/05 04:51:52;;;;;;;2.83;0.57;;;3.40;99.90;;;;;;5013152;28;20045;-69
2023/03/05 04:54:17;;;;;;;6.13;0.57;;;3.40;99.90;;;;;;5007379;28;20100;-69
2023/03/05 04:56:43;;;;;;;1.00;0.40;;;3.40;99.90;;;;;;5007968;28;20112;-69
2023/03/05 04:59:09;;;;;;;0.88;0.40;;;3.40;99.90;;;;;;5016684;28;20044;-69
2023/03/05 05:01:35;;;;;;;4.50;0.73;;;3.50;99.90;;;;;;5035338;28;20049;-69
2023/03/05 05:04:01;;;;;;;4.93;0.60;;;3.40;99.90;;;;;;5018009;28;20037;-69
2023/03/05 05:06:26;;;;;;;4.05;0.80;;;3.40;99.90;;;;;;5006762;28;20046;-69
2023/03/05 05:08:52;;;;;;;2.13;0.83;;;3.40;99.90;;;;;;5019619;28;20334;-69
2023/03/05 05:11:18;;;;;;;0.80;0.40;;;3.50;99.90;;;;;;5011665;28;20171;-68
2023/03/05 05:13:43;;;;;;;4.07;0.73;;;3.40;99.90;;;;;;5010430;28;20531;-69
2023/03/05 05:16:09;;;;;;;2.00;0.30;;;3.40;99.90;;;;;;5033936;28;20380;-69
2023/03/05 05:18:35;;;;;;;1.83;0.53;;;3.50;99.90;;;;;;5030534;28;20048;-69
2023/03/05 05:21:00;;;;;;;1.80;0.73;;;3.50;99.90;;;;;;5019143;28;20361;-69
2023/03/05 05:23:26;;;;;;;4.50;0.50;;;3.50;99.90;;;;;;5009914;28;20298;-69
2023/03/05 05:25:56;;;;;;;2.47;0.50;;;3.50;99.90;;;;;;5003120;28;20103;-69
2023/03/05 05:28:22;;;;;;;0.85;0.68;;;3.50;99.90;;;;;;5022867;28;20041;-68
2023/03/05 05:30:48;;;;;;;4.43;0.73;;;3.50;99.90;;;;;;5000887;28;20065;-68
2023/03/05 05:33:13;;;;;;;2.90;0.57;;;3.60;99.90;;;;;;5010312;28;20041;-69
2023/03/05 05:35:39;;;;;;;1.33;0.53;;;3.50;99.90;;;;;;5032901;28;20044;-69
2023/03/05 05:38:05;;;;;;;1.90;0.30;;;3.50;99.90;;;;;;5026042;28;20042;-69
2023/03/05 05:40:30;;;;;;;4.33;0.57;;;3.60;99.90;;;;;;5004681;28;20041;-69
2023/03/05 05:42:56;;;;;;;3.23;0.37;;;3.50;99.90;;;;;;5033477;28;20083;-68
2023/03/05 05:45:21;;;;;;;2.07;0.63;;;3.40;99.90;;;;;;5010017;28;20048;-69
2023/03/05 05:47:47;;;;;;;4.87;0.60;;;3.50;99.90;;;;;;5035796;28;20554;-69
2023/03/05 05:50:13;;;;;;;2.23;0.40;;;3.50;99.90;;;;;;4999451;28;20090;-69
2023/03/05 05:52:39;;;;;;;1.58;0.60;;;3.40;99.90;;;;;;5015335;28;20147;-69
2023/03/05 05:55:06;;;;;;;4.63;0.73;;;3.40;99.90;;;;;;5008898;28;20095;-69
2023/03/05 05:57:32;;;;;;;3.25;0.50;;;3.30;99.90;;;;;;5039073;28;20485;-69
2023/03/05 05:59:58;;;;;;;;;;;3.30;99.90;;;;;;5010382;28;20101;-69
2023/03/05 06:02:23;;;;;;;3.28;0.55;;;3.30;99.90;;;;;;5009495;28;19921;-69
2023/03/05 06:04:49;;;;;;;3.27;0.43;;;3.30;99.90;;;;;;5009106;28;20053;-69
2023/03/05 06:07:15;;;;;;;1.53;0.47;;;3.20;99.90;;;;;;5009790;28;20379;-69
2023/03/05 06:09:40;;;;;;;2.60;0.50;;;3.20;99.90;;;;;;5009306;28;20041;-68
2023/03/05 06:12:06;;;;;;;4.27;0.80;;;3.20;99.90;;;;;;5027759;28;20464;-69
2023/03/05 06:14:32;;;;;;;1.23;0.25;;;3.10;99.90;;;;;;5036445;28;20539;-69
2023/03/05 06:16:57;;;;;;;7.67;0.67;;;3.10;99.90;;;;;;5009087;28;20149;-69
2023/03/05 06:19:23;;;;;;;2.97;0.40;;;3.10;99.90;;;;;;5031183;28;20052;-69
2023/03/05 06:21:49;;;;;;;1.20;0.40;;;3.10;99.90;;;;;;5010016;28;20462;-68
2023/03/05 06:24:14;;;;;;;9.27;1.67;;;3.00;99.90;;;;;;5009793;28;20408;-69
2023/03/05 06:26:40;;;;;;;3.40;0.47;;;3.00;99.90;;;;;;5022222;28;20465;-69
2023/03/05 06:29:05;;;;;;;2.97;0.50;;;3.00;99.90;;;;;;5001919;28;20133;-69
2023/03/05 06:31:31;;;;;;;2.73;0.33;;;3.00;99.90;;;;;;5010586;28;20045;-69
2023/03/05 06:34:02;;;;;;;2.27;0.30;;;3.00;99.90;;;;;;5005639;28;20616;-69
2023/03/05 06:36:28;;;;;;;1.50;0.70;;;3.00;99.90;;;;;;5013310;28;20754;-69
2023/03/05 06:38:55;;;;;;;1.98;0.40;;;3.00;99.90;;;;;;4994038;28;20064;-69
2023/03/05 06:41:23;;;;;;;3.63;0.60;;;2.90;99.90;;;;;;5027197;28;20051;-70
2023/03/05 06:43:49;;;;;;;4.45;0.90;;;3.00;99.90;;;;;;5026658;28;20060;-69
2023/03/05 06:46:21;;;;;;;1.00;0.30;;;3.00;99.90;;;;;;5025360;28;20280;-69
2023/03/05 06:48:48;;;;;;;2.35;0.45;;;2.90;99.90;;;;;;5008054;28;20212;-69
2023/03/05 06:51:15;;;;;;;2.70;0.52;;;2.90;99.90;;;;;;5001829;28;20042;-69
2023/03/05 06:53:42;;;;;;;4.57;0.45;;;2.90;99.90;;;;;;5026175;28;20049;-69
2023/03/05 06:56:08;;;;;;;3.15;0.57;;;2.90;99.90;;;;;;5034779;28;20116;-69
2023/03/05 06:58:34;;;;;;;2.93;0.80;;;2.90;99.90;;;;;;4984881;28;20152;-69
2023/03/05 07:01:00;;;;;;;5.13;0.95;;;3.00;99.90;;;;;;5015867;28;20041;-68
2023/03/05 07:03:26;;;;;;;3.17;0.80;;;3.00;99.90;;;;;;5000218;28;20132;-69
2023/03/05 07:05:51;;;;;;;3.43;0.70;;;2.90;99.90;;;;;;5006182;28;20046;-69
2023/03/05 07:08:17;;;;;;;3.90;0.50;;;3.00;99.90;;;;;;5028748;28;20128;-69
2023/03/05 07:10:43;;;;;;;2.17;0.53;;;3.00;99.90;;;;;;5031834;28;20068;-69
2023/03/05 07:13:09;;;;;;;3.65;0.80;;;3.00;99.90;;;;;;5027694;28;20147;-69
2023/03/05 07:15:38;;;;;;;10.18;0.80;;;3.00;99.90;;;;;;5014622;28;20045;-68
2023/03/05 07:18:03;;;;;;;3.05;0.73;;;3.10;99.90;;;;;;5004237;28;20061;-69
2023/03/05 07:20:29;;;;;;;5.73;1.30;;;3.10;99.90;;;;;;5012817;28;20044;-69
2023/03/05 07:22:55;;;;;;;3.87;0.90;;;3.10;99.90;;;;;;5010991;28;20053;-69
2023/03/05 07:25:20;;;;;;;10.70;1.10;;;3.10;99.90;;;;;;5026950;28;20411;-69
2023/03/05 07:27:47;;;;;;;4.67;0.90;;;3.10;99.90;;;;;;4992355;28;20033;-69
2023/03/05 07:30:13;;;;;;;;;;;3.20;99.90;;;;;;5023680;28;20413;-69
2023/03/05 07:32:39;;;;;;;2.30;0.77;;;3.20;99.90;;;;;;5030023;28;19924;-68
2023/03/05 07:35:05;;;;;;;4.47;0.73;;;3.20;99.90;;;;;;5026761;28;20099;-68
2023/03/05 07:37:30;;;;;;;7.97;1.52;;;3.20;99.90;;;;;;5013984;28;20125;-68
2023/03/05 07:39:56;;;;;;;4.03;0.80;;;3.30;99.90;;;;;;5025816;28;20084;-69
2023/03/05 07:42:22;;;;;;;3.33;0.90;;;3.30;99.90;;;;;;5008557;28;20392;-69
2023/03/05 07:44:47;;;;;;;4.37;0.70;;;3.30;99.90;;;;;;5026527;28;20521;-69
2023/03/05 07:47:13;;;;;;;2.00;0.90;;;3.40;99.90;;;;;;5023790;28;20037;-69
2023/03/05 07:49:40;;;;;;;1.67;0.60;;;3.40;99.90;;;;;;5008084;28;20041;-69
2023/03/05 07:52:06;;;;;;;;;;;3.40;99.90;;;;;;5036285;28;20064;-69
2023/03/05 07:54:36;;;;;;;6.65;0.80;;;3.40;99.90;;;;;;5032868;28;19924;-69
2023/03/05 07:57:03;;;;;;;6.43;1.08;;;3.50;99.90;;;;;;5017616;28;20061;-69
2023/03/05 07:59:29;;;;;;;4.22;0.43;;;3.50;99.90;;;;;;5033494;28;20259;-69
2023/03/05 08:01:55;;;;;;;1.63;0.60;;;3.50;99.90;;;;;;5013039;28;20127;-69
2023/03/05 08:04:21;;;;;;;2.78;0.95;;;3.60;99.90;;;;;;5023331;28;20045;-69
2023/03/05 08:06:46;;;;;;;3.27;0.70;;;3.60;99.90;;;;;;5019652;28;20357;-69
2023/03/05 08:09:12;;;;;;;2.63;0.40;;;3.60;99.90;;;;;;5005154;28;20068;-69
2023/03/05 08:11:41;;;;;;;5.83;0.73;;;3.70;99.90;;;;;;5026442;28;20041;-69
2023/03/05 08:14:07;;;;;;;3.28;0.70;;;3.80;99.90;;;;;;5026164;28;20046;-68
2023/03/05 08:16:33;;;;;;;11.68;1.50;;;3.80;99.90;;;;;;5028549;28;20033;-69
2023/03/05 08:18:58;;;;;;;6.07;2.00;;;3.90;99.90;;;;;;5026912;28;20041;-69
2023/03/05 08:21:33;;;;;;;1.80;0.60;;;4.00;99.90;;;;;;5006294;28;20038;-68
2023/03/05 08:24:00;;;;;;;4.18;0.90;;;4.00;99.90;;;;;;4991665;28;20101;-69
2023/03/05 08:26:29;;;;;;;4.43;0.95;;;4.10;99.90;;;;;;5007157;28;20041;-69
2023/03/05 08:28:54;;;;;;;2.78;0.98;;;4.10;99.90;;;;;;5021422;28;20491;-69
2023/03/05 08:31:23;;;;;;;3.13;0.80;;;4.30;99.90;;;;;;5011557;28;20037;-69
2023/03/05 08:33:49;;;;;;;6.38;1.13;;;4.30;99.90;;;;;;5028732;28;20116;-69
2023/03/05 08:36:15;;;;;;;;;;;4.40;99.90;;;;;;5026841;28;20179;-69
2023/03/05 08:38:42;;;;;;;2.88;0.80;;;4.40;99.90;;;;;;5030639;28;20319;-69
2023/03/05 08:41:08;;;;;;;5.05;0.80;;;4.50;99.90;;;;;;5008334;28;20164;-69
2023/03/05 08:43:33;;;;;;;3.83;0.47;;;4.60;99.90;;;;;;5031489;28;20112;-69
2023/03/05 08:46:00;;;;;;;6.20;0.63;;;4.70;99.90;;;;;;5034317;28;20059;-69
2023/03/05 08:48:27;;;;;;;2.72;0.68;;;4.80;99.90;;;;;;5013367;28;20124;-70
2023/03/05 08:50:53;;;;;;;6.55;1.58;;;4.80;99.90;;;;;;5012313;28;20049;-69
2023/03/05 08:53:18;;;;;;;13.48;3.05;;;4.90;99.90;;;;;;5028846;28;20412;-68
2023/03/05 08:55:56;;;;;;;16.37;5.90;;;4.90;99.90;;;;;;5008330;28;20046;-69
2023/03/05 08:58:22;;;;;;;6.40;2.30;;;5.00;99.90;;;;;;5009587;28;20075;-69
2023/03/05 09:00:51;;;;;;;5.30;1.90;;;5.10;99.90;;;;;;5029706;28;20388;-69
2023/03/05 09:03:17;;;;;;;5.50;1.88;;;5.20;99.90;;;;;;5012913;28;20044;-69
2023/03/05 09:05:42;;;;;;;6.07;0.97;;;5.20;99.90;;;;;;5027742;28;20041;-69
2023/03/05 09:08:08;;;;;;;2.13;0.67;;;5.20;99.90;;;;;;5026914;28;20266;-69
2023/03/05 09:10:34;;;;;;;2.50;0.83;;;5.40;99.90;;;;;;4999705;28;20041;-69
2023/03/05 09:12:59;;;;;;;2.70;0.90;;;5.30;99.90;;;;;;5029082;28;20099;-69
2023/03/05 09:15:25;;;;;;;2.20;0.50;;;5.40;99.90;;;;;;5032608;28;20052;-70
2023/03/05 09:17:51;;;;;;;2.37;0.60;;;5.50;99.90;;;;;;5033672;28;20049;-69
2023/03/05 09:20:17;;;;;;;2.23;0.63;;;5.60;99.90;;;;;;5027126;28;20356;-69
2023/03/05 09:22:42;;;;;;;3.78;0.98;;;5.60;99.90;;;;;;5005039;28;20426;-69
2023/03/05 09:25:10;;;;;;;0.80;0.50;;;5.70;99.90;;;;;;5011932;28;20163;-69
2023/03/05 09:27:37;;;;;;;4.93;1.17;;;5.70;99.90;;;;;;5002587;28;20139;-69
2023/03/05 09:30:04;;;;;;;8.25;1.15;;;5.80;99.90;;;;;;5025054;28;20095;-69
2023/03/05 09:32:31;;;;;;;2.20;1.00;;;5.80;99.90;;;;;;5031310;28;20884;-70
2023/03/05 09:34:59;;;;;;;4.03;0.50;;;5.90;99.90;;;;;;5013971;28;20045;-68
2023/03/05 09:37:25;;;;;;;2.63;0.55;;;6.10;99.90;;;;;;5006719;28;20129;-69
2023/03/05 09:39:51;;;;;;;4.10;0.60;;;6.30;99.90;;;;;;5032876;28;20125;-68
2023/03/05 09:42:27;;;;;;;6.23;0.90;;;6.30;99.90;;;;;;5020467;28;20085;-69
2023/03/05 09:45:07;;;;;;;2.50;0.60;;;6.30;99.90;;;;;;5013941;28;20428;-69
2023/03/05 09:47:47;;;;;;;4.32;0.68;;;6.30;99.90;;;;;;5032509;28;20041;-69
2023/03/05 09:50:31;;;;;;;4.60;0.65;;;6.30;99.90;;;;;;5003196;28;20099;-69
2023/03/05 09:53:05;;;;;;;5.35;0.80;;;6.30;99.90;;;;;;5008227;28;20045;-68
2023/03/05 09:55:49;;;;;;;5.15;0.75;;;6.30;99.90;;;;;;5045049;28;20073;-69
2023/03/05 09:58:24;;;;;;;7.80;0.55;;;6.20;99.90;;;;;;4995195;28;20107;-69
2023/03/05 10:01:00;;;;;;;2.58;0.60;;;6.20;99.90;;;;;;5010980;28;20041;-68
2023/03/05 10:03:31;;;;;;;3.03;0.63;;;6.20;99.90;;;;;;5008620;28;20045;-69
2023/03/05 10:06:05;;;;;;;1.05;0.40;;;6.10;99.90;;;;;;5009259;28;20465;-69
2023/03/05 10:08:50;;;;;;;4.78;0.50;;;6.10;99.90;;;;;;5029588;28;20464;-68
2023/03/05 10:11:53;;;;;;;4.25;0.77;;;6.10;99.90;;;;;;5029391;28;20448;-69
2023/03/05 10:14:38;;;;;;;5.07;0.60;;;6.20;99.90;;;;;;4985431;28;20051;-69
2023/03/05 10:17:28;;;;;;;3.35;0.30;;;6.50;99.90;;;;;;5034984;28;20041;-69
2023/03/05 10:20:05;;;;;;;4.00;0.63;;;6.70;99.90;;;;;;5076883;23;20199;-68
2023/03/05 10:22:55;;;;;;;5.10;0.70;;;6.80;99.90;;;;;;5001180;28;20180;-68
2023/03/05 10:25:45;;;;;;;3.08;0.40;;;6.80;99.90;;;;;;4985228;28;20408;-68
2023/03/05 10:28:47;;;;;;;3.60;0.52;;;6.70;99.90;;;;;;5003611;28;20450;-67
2023/03/05 10:31:50;;;;;;;4.68;0.57;;;6.70;99.90;;;;;;4955139;28;20042;-68
2023/03/05 10:34:29;;;;;;;4.70;0.90;;;6.60;99.90;;;;;;4990928;28;20612;-68
2023/03/05 10:37:11;;;;;;;5.25;0.75;;;6.50;99.90;;;;;;4991029;28;20124;-68
2023/03/05 10:39:59;;;;;;;3.40;0.73;;;6.60;99.90;;;;;;4989538;28;20386;-68
2023/03/05 10:42:48;;;;;;;5.65;0.77;;;6.70;99.90;;;;;;5000505;28;20065;-68
2023/03/05 10:45:27;;;;;;;3.42;0.50;;;6.90;99.90;;;;;;4994886;28;20066;-67
2023/03/05 10:47:56;;;;;;;4.40;0.28;;;7.10;99.90;;;;;;4997205;28;20077;-72
2023/03/05 10:50:25;;;;;;;4.05;0.60;;;7.20;99.90;;;;;;4983560;28;20038;-68
2023/03/05 10:53:22;;;;;;;1.70;0.30;;;7.30;99.90;;;;;;4990754;28;20119;-76
2023/03/05 10:55:49;;;;;;;3.42;0.40;;;7.50;99.90;;;;;;4995905;28;20050;-68
2023/03/05 10:58:18;;;;;;;2.95;0.60;;;7.60;99.90;;;;;;4995409;28;20457;-68
2023/03/05 11:01:08;;;;;;;4.50;1.00;;;7.70;99.90;;;;;;4986907;28;20149;-68
2023/03/05 11:03:45;;;;;;;1.83;0.40;;;7.90;99.90;;;;;;4988736;28;20058;-68
2023/03/05 11:06:12;;;;;;;4.55;1.17;;;8.00;99.90;;;;;;5012059;28;20081;-69
2023/03/05 11:08:38;;;;;;;3.13;0.70;;;7.90;99.90;;;;;;4994431;28;20042;-68
2023/03/05 11:11:13;;;;;;;4.70;0.98;;;7.70;99.90;;;;;;4988688;28;20406;-69
2023/03/05 11:13:48;;;;;;;4.18;0.73;;;7.50;99.90;;;;;;4992198;28;20041;-74
2023/03/05 11:16:21;;;;;;;5.53;0.75;;;7.20;99.90;;;;;;4993741;28;20121;-69
2023/03/05 11:18:47;;;;;;;4.15;1.00;;;7.10;99.90;;;;;;4991350;28;20548;-69
2023/03/05 11:21:26;;;;;;;4.80;1.37;;;7.00;99.90;;;;;;4997646;28;20030;-69
2023/03/05 11:24:19;;;;;;;3.35;0.60;;;7.20;99.90;;;;;;4999483;28;20038;-70
2023/03/05 11:26:53;;;;;;;1.48;0.50;;;7.40;99.90;;;;;;5008199;28;20065;-69
2023/03/05 11:29:24;;;;;;;3.80;0.60;;;7.60;99.90;;;;;;4987697;28;20065;-71
2023/03/05 11:31:50;;;;;;;6.15;1.17;;;7.80;99.90;;;;;;5004041;28;20132;-69
2023/03/05 11:34:16;;;;;;;2.58;0.57;;;8.00;99.90;;;;;;4985029;28;20212;-69
2023/03/05 11:36:55;;;;;;;1.77;0.37;;;8.00;99.90;;;;;;4997381;28;20129;-73
2023/03/05 11:39:22;;;;;;;1.67;0.50;;;8.20;99.90;;;;;;5003092;28;20119;-68
2023/03/05 11:41:57;;;;;;;1.35;0.43;;;8.30;99.90;;;;;;4996580;28;20067;-70
2023/03/05 11:44:50;;;;;;;1.13;0.40;;;8.30;99.90;;;;;;5001875;28;20050;-70
2023/03/05 11:47:36;;;;;;;1.67;0.30;;;8.30;99.90;;;;;;5010064;28;20057;-68
2023/03/05 11:50:28;;;;;;;1.85;0.50;;;8.40;99.90;;;;;;4996706;28;20053;-74
2023/03/05 11:53:01;;;;;;;2.63;0.32;;;8.40;99.90;;;;;;4996686;28;20044;-67
2023/03/05 11:55:40;;;;;;;3.97;0.40;;;8.40;99.90;;;;;;5012600;28;20042;-67
2023/03/05 11:58:27;;;;;;;3.08;0.52;;;8.40;99.90;;;;;;4996370;28;20038;-67
2023/03/05 12:00:52;;;;;;;1.43;0.20;;;8.20;99.90;;;;;;4998332;28;20481;-68
2023/03/05 12:03:26;;;;;;;1.57;0.30;;;8.30;99.90;;;;;;4987602;28;20038;-68
2023/03/05 12:06:12;;;;;;;1.45;0.35;;;8.20;99.90;;;;;;4995317;28;20728;-68
2023/03/05 12:08:42;;;;;;;1.58;0.30;;;8.00;99.90;;;;;;4990405;28;20513;-68
2023/03/05 12:11:18;;;;;;;1.67;0.30;;;7.90;99.90;;;;;;4991436;28;20050;-68
2023/03/05 12:13:52;;;;;;;2.43;0.60;;;7.80;99.90;;;;;;4993543;28;20089;-68
2023/03/05 12:16:57;;;;;;;4.20;0.40;;;7.70;99.90;;;;;;5010691;28;20299;-68
2023/03/05 12:19:31;;;;;;;1.30;0.40;;;7.70;99.90;;;;;;4997622;28;20069;-68
2023/03/05 12:21:58;;;;;;;6.35;1.25;;;7.70;99.90;;;;;;4993049;28;20505;-68
2023/03/05 12:24:23;;;;;;;;;;;7.70;99.90;;;;;;4992027;28;20407;-68
2023/03/05 12:26:52;;;;;;;3.05;1.30;;;7.70;99.90;;;;;;4990041;28;19925;-68
2023/03/05 12:29:50;;;;;;;3.40;0.82;;;7.80;99.90;;;;;;4999021;28;20053;-68
2023/03/05 12:32:30;;;;;;;4.05;0.75;;;7.70;99.90;;;;;;4987010;28;20078;-68
2023/03/05 12:35:31;;;;;;;2.10;0.57;;;7.60;99.90;;;;;;5000350;28;20484;-68
2023/03/05 12:37:58;;;;;;;2.35;0.77;;;7.50;99.90;;;;;;4998470;28;20046;-68
2023/03/05 12:40:32;;;;;;;5.82;0.63;;;7.50;99.90;;;;;;4998769;28;20387;-69
2023/03/05 12:43:03;;;;;;;1.33;0.40;;;7.40;99.90;;;;;;4992147;28;20446;-68
2023/03/05 12:45:40;;;;;;;4.35;0.55;;;7.40;99.90;;;;;;5009652;28;20505;-68
2023/03/05 12:48:10;;;;;;;2.05;1.00;;;7.40;99.90;;;;;;4994611;28;20069;-68
2023/03/05 12:50:36;;;;;;;3.13;0.50;;;7.60;99.90;;;;;;4993804;28;20038;-69
2023/03/05 12:53:17;;;;;;;3.07;0.53;;;7.70;99.90;;;;;;4991581;28;20073;-69
2023/03/05 12:55:54;;;;;;;4.40;0.90;;;7.90;99.90;;;;;;4986452;28;20509;-68
2023/03/05 12:58:26;;;;;;;2.10;0.30;;;7.90;99.90;;;;;;4990570;28;20054;-67
2023/03/05 13:01:09;;;;;;;1.27;0.50;;;7.90;99.90;;;;;;4988283;28;20465;-68
2023/03/05 13:03:56;;;;;;;4.75;0.55;;;7.90;99.90;;;;;;4986116;28;20265;-68
2023/03/05 13:06:28;;;;;;;1.73;0.40;;;7.80;99.90;;;;;;4991104;28;20050;-68
2023/03/05 13:09:03;;;;;;;2.47;0.30;;;7.70;99.90;;;;;;4991711;28;20050;-68